sensor_id;sensor_type;location;lat;lon;timestamp;P1;durP1;ratioP1;P2;durP2;ratioP2
34072;SDS011;20346;52.702;16.886;2024-02-28T00:01:24;85.40;;;29.60;;
34072;SDS011;20346;52.702;16.886;2024-02-28T00:03:50;88.90;;;30.70;;
34072;SDS011;20346;52.702;16.886;2024-02-28T00:06:16;89.50;;;31.00;;
34072;SDS011;20346;52.702;16.886;2024-02-28T00:08:42;77.40;;;30.70;;
34072;SDS011;20346;52.702;16.886;2024-02-28T00:11:07;76.50;;;28.50;;
34072;SDS011;20346;52.702;16.886;2024-02-28T00:13:33;71.90;;;28.40;;
34072;SDS011;20346;52.702;16.886;2024-02-28T00:15:58;82.50;;;30.90;;
34072;SDS011;20346;52.702;16.886;2024-02-28T00:18:24;66.50;;;28.30;;
34072;SDS011;20346;52.702;16.886;2024-02-28T00:20:49;71.30;;;29.20;;
34072;SDS011;20346;52.702;16.886;2024-02-28T00:23:15;69.50;;;31.00;;
34072;SDS011;20346;52.702;16.886;2024-02-28T00:25:40;67.70;;;29.90;;
34072;SDS011;20346;52.702;16.886;2024-02-28T00:28:06;73.70;;;29.40;;
34072;SDS011;20346;52.702;16.886;2024-02-28T00:30:31;68.20;;;29.50;;
34072;SDS011;20346;52.702;16.886;2024-02-28T00:32:58;65.00;;;30.00;;
34072;SDS011;20346;52.702;16.886;2024-02-28T00:35:24;69.30;;;29.30;;
34072;SDS011;20346;52.702;16.886;2024-02-28T00:37:50;68.70;;;29.00;;
34072;SDS011;20346;52.702;16.886;2024-02-28T00:40:15;65.50;;;29.10;;
34072;SDS011;20346;52.702;16.886;2024-02-28T00:42:41;60.60;;;27.90;;
34072;SDS011;20346;52.702;16.886;2024-02-28T00:45:08;59.30;;;26.80;;
34072;SDS011;20346;52.702;16.886;2024-02-28T00:47:34;58.20;;;26.60;;
34072;SDS011;20346;52.702;16.886;2024-02-28T00:50:00;53.10;;;26.90;;
34072;SDS011;20346;52.702;16.886;2024-02-28T00:52:28;60.20;;;27.20;;
34072;SDS011;20346;52.702;16.886;2024-02-28T00:54:54;57.10;;;28.00;;
34072;SDS011;20346;52.702;16.886;2024-02-28T00:57:20;53.40;;;26.00;;
34072;SDS011;20346;52.702;16.886;2024-02-28T00:59:45;55.90;;;27.40;;
34072;SDS011;20346;52.702;16.886;2024-02-28T01:02:11;55.50;;;28.50;;
34072;SDS011;20346;52.702;16.886;2024-02-28T01:04:36;52.50;;;27.80;;
34072;SDS011;20346;52.702;16.886;2024-02-28T01:07:02;53.30;;;26.70;;
34072;SDS011;20346;52.702;16.886;2024-02-28T01:09:28;55.20;;;26.70;;
34072;SDS011;20346;52.702;16.886;2024-02-28T01:11:53;47.60;;;26.70;;
34072;SDS011;20346;52.702;16.886;2024-02-28T01:14:19;49.20;;;26.20;;
34072;SDS011;20346;52.702;16.886;2024-02-28T01:16:45;52.50;;;26.70;;
34072;SDS011;20346;52.702;16.886;2024-02-28T01:19:10;58.50;;;28.30;;
34072;SDS011;20346;52.702;16.886;2024-02-28T01:21:36;54.10;;;27.80;;
34072;SDS011;20346;52.702;16.886;2024-02-28T01:24:01;48.50;;;25.10;;
34072;SDS011;20346;52.702;16.886;2024-02-28T01:26:27;50.30;;;27.00;;
34072;SDS011;20346;52.702;16.886;2024-02-28T01:28:53;53.80;;;27.80;;
34072;SDS011;20346;52.702;16.886;2024-02-28T01:31:18;48.70;;;26.60;;
34072;SDS011;20346;52.702;16.886;2024-02-28T01:33:44;47.90;;;25.30;;
34072;SDS011;20346;52.702;16.886;2024-02-28T01:36:10;48.50;;;25.80;;
34072;SDS011;20346;52.702;16.886;2024-02-28T01:38:36;57.10;;;27.70;;
34072;SDS011;20346;52.702;16.886;2024-02-28T01:41:02;50.60;;;25.20;;
34072;SDS011;20346;52.702;16.886;2024-02-28T01:43:29;48.80;;;25.50;;
34072;SDS011;20346;52.702;16.886;2024-02-28T01:45:55;56.70;;;28.30;;
34072;SDS011;20346;52.702;16.886;2024-02-28T01:48:21;53.10;;;27.50;;
34072;SDS011;20346;52.702;16.886;2024-02-28T01:50:47;59.70;;;27.80;;
34072;SDS011;20346;52.702;16.886;2024-02-28T01:53:12;57.60;;;28.60;;
34072;SDS011;20346;52.702;16.886;2024-02-28T01:55:39;49.90;;;25.50;;
34072;SDS011;20346;52.702;16.886;2024-02-28T01:58:05;53.90;;;27.20;;
34072;SDS011;20346;52.702;16.886;2024-02-28T02:00:32;50.80;;;26.90;;
34072;SDS011;20346;52.702;16.886;2024-02-28T02:07:50;43.80;;;23.30;;
34072;SDS011;20346;52.702;16.886;2024-02-28T02:10:16;47.90;;;24.30;;
34072;SDS011;20346;52.702;16.886;2024-02-28T02:12:42;51.70;;;24.50;;
34072;SDS011;20346;52.702;16.886;2024-02-28T02:15:08;41.70;;;23.90;;
34072;SDS011;20346;52.702;16.886;2024-02-28T02:17:33;47.50;;;24.80;;
34072;SDS011;20346;52.702;16.886;2024-02-28T02:19:59;49.30;;;25.10;;
34072;SDS011;20346;52.702;16.886;2024-02-28T02:22:25;47.80;;;25.30;;
34072;SDS011;20346;52.702;16.886;2024-02-28T02:24:54;45.00;;;23.50;;
34072;SDS011;20346;52.702;16.886;2024-02-28T02:27:20;48.10;;;25.40;;
34072;SDS011;20346;52.702;16.886;2024-02-28T02:29:45;48.60;;;25.80;;
34072;SDS011;20346;52.702;16.886;2024-02-28T02:32:11;45.20;;;23.30;;
34072;SDS011;20346;52.702;16.886;2024-02-28T02:34:36;49.20;;;25.50;;
34072;SDS011;20346;52.702;16.886;2024-02-28T02:37:02;46.00;;;23.30;;
34072;SDS011;20346;52.702;16.886;2024-02-28T02:41:54;46.70;;;23.50;;
34072;SDS011;20346;52.702;16.886;2024-02-28T02:44:20;49.10;;;23.10;;
34072;SDS011;20346;52.702;16.886;2024-02-28T02:46:45;53.10;;;24.30;;
34072;SDS011;20346;52.702;16.886;2024-02-28T02:49:11;49.90;;;23.90;;
34072;SDS011;20346;52.702;16.886;2024-02-28T02:51:36;49.10;;;24.00;;
34072;SDS011;20346;52.702;16.886;2024-02-28T02:54:02;48.30;;;23.10;;
34072;SDS011;20346;52.702;16.886;2024-02-28T02:56:27;49.70;;;24.50;;
34072;SDS011;20346;52.702;16.886;2024-02-28T02:58:53;52.80;;;25.10;;
34072;SDS011;20346;52.702;16.886;2024-02-28T03:01:19;54.10;;;25.10;;
34072;SDS011;20346;52.702;16.886;2024-02-28T03:03:45;50.00;;;24.20;;
34072;SDS011;20346;52.702;16.886;2024-02-28T03:06:10;47.60;;;23.90;;
34072;SDS011;20346;52.702;16.886;2024-02-28T03:08:36;49.90;;;23.50;;
34072;SDS011;20346;52.702;16.886;2024-02-28T03:11:01;53.30;;;23.40;;
34072;SDS011;20346;52.702;16.886;2024-02-28T03:13:29;50.20;;;24.00;;
34072;SDS011;20346;52.702;16.886;2024-02-28T03:15:55;64.90;;;26.50;;
34072;SDS011;20346;52.702;16.886;2024-02-28T03:18:20;53.30;;;25.20;;
34072;SDS011;20346;52.702;16.886;2024-02-28T03:20:46;57.90;;;26.10;;
34072;SDS011;20346;52.702;16.886;2024-02-28T03:23:11;66.60;;;26.80;;
34072;SDS011;20346;52.702;16.886;2024-02-28T03:25:37;62.70;;;24.70;;
34072;SDS011;20346;52.702;16.886;2024-02-28T03:28:02;56.90;;;25.50;;
34072;SDS011;20346;52.702;16.886;2024-02-28T03:30:31;58.40;;;26.60;;
34072;SDS011;20346;52.702;16.886;2024-02-28T03:32:56;62.90;;;26.70;;
34072;SDS011;20346;52.702;16.886;2024-02-28T03:35:22;60.00;;;26.00;;
34072;SDS011;20346;52.702;16.886;2024-02-28T03:37:47;68.00;;;28.70;;
34072;SDS011;20346;52.702;16.886;2024-02-28T03:40:13;75.20;;;27.90;;
34072;SDS011;20346;52.702;16.886;2024-02-28T03:42:39;62.50;;;27.70;;
34072;SDS011;20346;52.702;16.886;2024-02-28T03:45:05;72.00;;;27.20;;
34072;SDS011;20346;52.702;16.886;2024-02-28T03:47:31;69.20;;;28.60;;
34072;SDS011;20346;52.702;16.886;2024-02-28T03:49:57;64.60;;;27.20;;
34072;SDS011;20346;52.702;16.886;2024-02-28T03:52:22;58.70;;;25.30;;
34072;SDS011;20346;52.702;16.886;2024-02-28T03:54:48;68.20;;;28.00;;
34072;SDS011;20346;52.702;16.886;2024-02-28T03:57:14;64.50;;;26.40;;
34072;SDS011;20346;52.702;16.886;2024-02-28T03:59:42;67.10;;;26.70;;
34072;SDS011;20346;52.702;16.886;2024-02-28T04:02:08;67.70;;;26.00;;
34072;SDS011;20346;52.702;16.886;2024-02-28T04:04:34;67.10;;;26.80;;
34072;SDS011;20346;52.702;16.886;2024-02-28T04:07:00;65.20;;;26.70;;
34072;SDS011;20346;52.702;16.886;2024-02-28T04:09:25;76.20;;;29.00;;
34072;SDS011;20346;52.702;16.886;2024-02-28T04:11:51;72.90;;;28.60;;
34072;SDS011;20346;52.702;16.886;2024-02-28T04:14:17;74.20;;;28.40;;
34072;SDS011;20346;52.702;16.886;2024-02-28T04:16:45;81.10;;;29.20;;
34072;SDS011;20346;52.702;16.886;2024-02-28T04:19:11;81.30;;;28.40;;
34072;SDS011;20346;52.702;16.886;2024-02-28T04:21:36;68.50;;;27.40;;
34072;SDS011;20346;52.702;16.886;2024-02-28T04:24:02;69.20;;;26.40;;
34072;SDS011;20346;52.702;16.886;2024-02-28T04:26:29;87.30;;;29.30;;
34072;SDS011;20346;52.702;16.886;2024-02-28T04:28:54;72.40;;;27.30;;
34072;SDS011;20346;52.702;16.886;2024-02-28T04:31:21;67.40;;;27.90;;
34072;SDS011;20346;52.702;16.886;2024-02-28T04:33:47;76.30;;;29.40;;
34072;SDS011;20346;52.702;16.886;2024-02-28T04:36:12;70.60;;;27.30;;
34072;SDS011;20346;52.702;16.886;2024-02-28T04:38:37;76.10;;;29.40;;
34072;SDS011;20346;52.702;16.886;2024-02-28T04:41:03;86.50;;;31.00;;
34072;SDS011;20346;52.702;16.886;2024-02-28T04:43:28;69.10;;;28.90;;
34072;SDS011;20346;52.702;16.886;2024-02-28T04:45:54;80.90;;;30.30;;
34072;SDS011;20346;52.702;16.886;2024-02-28T04:48:19;70.30;;;27.80;;
34072;SDS011;20346;52.702;16.886;2024-02-28T04:50:45;75.50;;;28.00;;
34072;SDS011;20346;52.702;16.886;2024-02-28T04:53:11;84.90;;;28.70;;
34072;SDS011;20346;52.702;16.886;2024-02-28T04:55:36;74.80;;;28.90;;
34072;SDS011;20346;52.702;16.886;2024-02-28T04:58:02;71.40;;;29.20;;
34072;SDS011;20346;52.702;16.886;2024-02-28T05:00:27;81.70;;;28.60;;
34072;SDS011;20346;52.702;16.886;2024-02-28T05:02:53;68.80;;;27.10;;
34072;SDS011;20346;52.702;16.886;2024-02-28T05:05:18;78.80;;;27.50;;
34072;SDS011;20346;52.702;16.886;2024-02-28T05:07:44;75.80;;;28.30;;
34072;SDS011;20346;52.702;16.886;2024-02-28T05:10:09;76.30;;;27.40;;
34072;SDS011;20346;52.702;16.886;2024-02-28T05:12:35;76.50;;;28.70;;
34072;SDS011;20346;52.702;16.886;2024-02-28T05:15:01;87.90;;;29.50;;
34072;SDS011;20346;52.702;16.886;2024-02-28T05:17:27;72.70;;;28.10;;
34072;SDS011;20346;52.702;16.886;2024-02-28T05:19:52;84.60;;;29.40;;
34072;SDS011;20346;52.702;16.886;2024-02-28T05:22:18;71.50;;;26.70;;
34072;SDS011;20346;52.702;16.886;2024-02-28T05:24:46;66.60;;;26.10;;
34072;SDS011;20346;52.702;16.886;2024-02-28T05:27:12;70.20;;;27.30;;
34072;SDS011;20346;52.702;16.886;2024-02-28T05:29:37;67.60;;;27.90;;
34072;SDS011;20346;52.702;16.886;2024-02-28T05:32:03;68.80;;;27.30;;
34072;SDS011;20346;52.702;16.886;2024-02-28T05:34:29;62.90;;;27.10;;
34072;SDS011;20346;52.702;16.886;2024-02-28T05:36:55;65.70;;;25.80;;
34072;SDS011;20346;52.702;16.886;2024-02-28T05:39:20;62.20;;;26.20;;
34072;SDS011;20346;52.702;16.886;2024-02-28T05:41:46;59.90;;;24.70;;
34072;SDS011;20346;52.702;16.886;2024-02-28T05:44:12;54.70;;;24.80;;
34072;SDS011;20346;52.702;16.886;2024-02-28T05:46:37;54.70;;;24.30;;
34072;SDS011;20346;52.702;16.886;2024-02-28T05:49:03;58.80;;;24.70;;
34072;SDS011;20346;52.702;16.886;2024-02-28T05:51:29;50.70;;;23.50;;
34072;SDS011;20346;52.702;16.886;2024-02-28T05:53:54;50.80;;;23.60;;
34072;SDS011;20346;52.702;16.886;2024-02-28T05:56:20;51.30;;;23.40;;
34072;SDS011;20346;52.702;16.886;2024-02-28T05:58:46;47.80;;;23.60;;
34072;SDS011;20346;52.702;16.886;2024-02-28T06:01:16;54.00;;;23.50;;
34072;SDS011;20346;52.702;16.886;2024-02-28T06:03:45;51.20;;;22.10;;
34072;SDS011;20346;52.702;16.886;2024-02-28T06:06:12;54.80;;;24.40;;
34072;SDS011;20346;52.702;16.886;2024-02-28T06:08:39;49.00;;;22.70;;
34072;SDS011;20346;52.702;16.886;2024-02-28T06:13:31;44.90;;;22.50;;
34072;SDS011;20346;52.702;16.886;2024-02-28T06:15:56;42.90;;;21.80;;
34072;SDS011;20346;52.702;16.886;2024-02-28T06:18:22;48.10;;;22.90;;
34072;SDS011;20346;52.702;16.886;2024-02-28T06:20:51;43.30;;;20.80;;
34072;SDS011;20346;52.702;16.886;2024-02-28T06:23:21;47.10;;;22.40;;
34072;SDS011;20346;52.702;16.886;2024-02-28T06:25:46;42.50;;;21.70;;
34072;SDS011;20346;52.702;16.886;2024-02-28T06:28:12;53.50;;;21.10;;
34072;SDS011;20346;52.702;16.886;2024-02-28T06:30:37;40.80;;;22.40;;
34072;SDS011;20346;52.702;16.886;2024-02-28T06:33:03;49.00;;;22.40;;
34072;SDS011;20346;52.702;16.886;2024-02-28T06:35:30;42.50;;;22.10;;
34072;SDS011;20346;52.702;16.886;2024-02-28T06:37:55;41.20;;;20.90;;
34072;SDS011;20346;52.702;16.886;2024-02-28T06:40:21;42.10;;;20.80;;
34072;SDS011;20346;52.702;16.886;2024-02-28T06:42:46;47.50;;;22.30;;
34072;SDS011;20346;52.702;16.886;2024-02-28T06:45:12;44.40;;;21.70;;
34072;SDS011;20346;52.702;16.886;2024-02-28T06:47:38;48.00;;;21.90;;
34072;SDS011;20346;52.702;16.886;2024-02-28T06:50:03;44.00;;;21.60;;
34072;SDS011;20346;52.702;16.886;2024-02-28T06:52:30;37.60;;;20.60;;
34072;SDS011;20346;52.702;16.886;2024-02-28T06:54:56;40.30;;;21.10;;
34072;SDS011;20346;52.702;16.886;2024-02-28T06:57:21;46.30;;;22.70;;
34072;SDS011;20346;52.702;16.886;2024-02-28T06:59:47;47.80;;;22.70;;
34072;SDS011;20346;52.702;16.886;2024-02-28T07:02:13;44.70;;;20.70;;
34072;SDS011;20346;52.702;16.886;2024-02-28T07:04:39;44.10;;;22.20;;
34072;SDS011;20346;52.702;16.886;2024-02-28T07:07:06;44.70;;;22.50;;
34072;SDS011;20346;52.702;16.886;2024-02-28T07:09:31;42.20;;;22.10;;
34072;SDS011;20346;52.702;16.886;2024-02-28T07:11:58;41.80;;;22.50;;
34072;SDS011;20346;52.702;16.886;2024-02-28T07:14:24;49.00;;;23.20;;
34072;SDS011;20346;52.702;16.886;2024-02-28T07:16:49;50.60;;;23.60;;
34072;SDS011;20346;52.702;16.886;2024-02-28T07:19:17;49.00;;;23.00;;
34072;SDS011;20346;52.702;16.886;2024-02-28T07:21:43;50.00;;;23.90;;
34072;SDS011;20346;52.702;16.886;2024-02-28T07:24:09;46.20;;;23.50;;
34072;SDS011;20346;52.702;16.886;2024-02-28T07:26:34;45.40;;;23.60;;
34072;SDS011;20346;52.702;16.886;2024-02-28T07:29:00;49.10;;;23.50;;
34072;SDS011;20346;52.702;16.886;2024-02-28T07:31:26;51.30;;;24.40;;
34072;SDS011;20346;52.702;16.886;2024-02-28T07:33:52;44.70;;;22.20;;
34072;SDS011;20346;52.702;16.886;2024-02-28T07:36:19;43.30;;;22.90;;
34072;SDS011;20346;52.702;16.886;2024-02-28T07:38:46;49.30;;;24.40;;
34072;SDS011;20346;52.702;16.886;2024-02-28T07:41:11;50.80;;;23.70;;
34072;SDS011;20346;52.702;16.886;2024-02-28T07:43:37;45.90;;;23.40;;
34072;SDS011;20346;52.702;16.886;2024-02-28T07:46:09;48.80;;;22.90;;
34072;SDS011;20346;52.702;16.886;2024-02-28T07:48:36;45.70;;;22.20;;
34072;SDS011;20346;52.702;16.886;2024-02-28T07:51:05;45.90;;;23.90;;
34072;SDS011;20346;52.702;16.886;2024-02-28T07:53:31;49.20;;;24.10;;
34072;SDS011;20346;52.702;16.886;2024-02-28T07:55:56;50.90;;;23.20;;
34072;SDS011;20346;52.702;16.886;2024-02-28T07:58:22;47.70;;;23.40;;
34072;SDS011;20346;52.702;16.886;2024-02-28T08:00:48;49.70;;;24.20;;
34072;SDS011;20346;52.702;16.886;2024-02-28T08:03:13;46.90;;;23.00;;
34072;SDS011;20346;52.702;16.886;2024-02-28T08:05:39;48.80;;;24.50;;
34072;SDS011;20346;52.702;16.886;2024-02-28T08:08:07;45.10;;;23.40;;
34072;SDS011;20346;52.702;16.886;2024-02-28T08:10:33;41.20;;;21.60;;
34072;SDS011;20346;52.702;16.886;2024-02-28T08:13:00;44.70;;;22.30;;
34072;SDS011;20346;52.702;16.886;2024-02-28T08:15:26;43.80;;;23.40;;
34072;SDS011;20346;52.702;16.886;2024-02-28T08:17:52;41.80;;;21.90;;
34072;SDS011;20346;52.702;16.886;2024-02-28T08:20:18;38.60;;;21.60;;
34072;SDS011;20346;52.702;16.886;2024-02-28T08:22:44;43.20;;;22.30;;
34072;SDS011;20346;52.702;16.886;2024-02-28T08:25:09;36.70;;;20.90;;
34072;SDS011;20346;52.702;16.886;2024-02-28T08:27:36;41.90;;;22.00;;
34072;SDS011;20346;52.702;16.886;2024-02-28T08:30:05;41.10;;;21.70;;
34072;SDS011;20346;52.702;16.886;2024-02-28T08:32:31;38.40;;;20.60;;
34072;SDS011;20346;52.702;16.886;2024-02-28T08:34:57;40.00;;;21.00;;
34072;SDS011;20346;52.702;16.886;2024-02-28T08:37:23;40.50;;;21.00;;
34072;SDS011;20346;52.702;16.886;2024-02-28T08:39:49;34.60;;;20.00;;
34072;SDS011;20346;52.702;16.886;2024-02-28T08:42:14;34.30;;;19.10;;
34072;SDS011;20346;52.702;16.886;2024-02-28T08:44:40;35.80;;;19.30;;
34072;SDS011;20346;52.702;16.886;2024-02-28T08:47:05;33.40;;;19.10;;
34072;SDS011;20346;52.702;16.886;2024-02-28T08:49:34;33.70;;;18.80;;
34072;SDS011;20346;52.702;16.886;2024-02-28T08:52:00;31.70;;;17.90;;
34072;SDS011;20346;52.702;16.886;2024-02-28T08:54:26;33.20;;;17.60;;
34072;SDS011;20346;52.702;16.886;2024-02-28T08:56:51;34.30;;;17.40;;
34072;SDS011;20346;52.702;16.886;2024-02-28T08:59:17;38.10;;;19.10;;
34072;SDS011;20346;52.702;16.886;2024-02-28T09:01:42;34.40;;;19.10;;
34072;SDS011;20346;52.702;16.886;2024-02-28T09:04:08;35.80;;;18.10;;
34072;SDS011;20346;52.702;16.886;2024-02-28T09:06:33;37.50;;;20.90;;
34072;SDS011;20346;52.702;16.886;2024-02-28T09:08:59;38.30;;;19.30;;
34072;SDS011;20346;52.702;16.886;2024-02-28T09:11:24;40.00;;;19.80;;
34072;SDS011;20346;52.702;16.886;2024-02-28T09:13:50;38.80;;;20.30;;
34072;SDS011;20346;52.702;16.886;2024-02-28T09:16:16;47.70;;;21.20;;
34072;SDS011;20346;52.702;16.886;2024-02-28T09:18:42;39.50;;;20.90;;
34072;SDS011;20346;52.702;16.886;2024-02-28T09:21:10;40.40;;;20.90;;
34072;SDS011;20346;52.702;16.886;2024-02-28T09:23:36;39.40;;;19.70;;
34072;SDS011;20346;52.702;16.886;2024-02-28T09:26:04;32.40;;;18.10;;
34072;SDS011;20346;52.702;16.886;2024-02-28T09:28:30;37.10;;;15.90;;
34072;SDS011;20346;52.702;16.886;2024-02-28T09:30:56;25.50;;;15.00;;
34072;SDS011;20346;52.702;16.886;2024-02-28T09:33:22;23.80;;;13.70;;
34072;SDS011;20346;52.702;16.886;2024-02-28T09:35:48;33.30;;;12.60;;
34072;SDS011;20346;52.702;16.886;2024-02-28T09:38:13;20.20;;;12.00;;
34072;SDS011;20346;52.702;16.886;2024-02-28T09:40:39;20.20;;;12.70;;
34072;SDS011;20346;52.702;16.886;2024-02-28T09:43:05;20.70;;;12.00;;
34072;SDS011;20346;52.702;16.886;2024-02-28T09:45:32;19.30;;;12.40;;
34072;SDS011;20346;52.702;16.886;2024-02-28T09:47:59;17.20;;;11.50;;
34072;SDS011;20346;52.702;16.886;2024-02-28T09:50:26;19.60;;;12.20;;
34072;SDS011;20346;52.702;16.886;2024-02-28T09:52:52;18.50;;;12.00;;
34072;SDS011;20346;52.702;16.886;2024-02-28T09:55:20;18.50;;;11.90;;
34072;SDS011;20346;52.702;16.886;2024-02-28T09:57:48;17.90;;;11.10;;
34072;SDS011;20346;52.702;16.886;2024-02-28T10:00:17;28.40;;;11.70;;
34072;SDS011;20346;52.702;16.886;2024-02-28T10:02:46;15.70;;;10.10;;
34072;SDS011;20346;52.702;16.886;2024-02-28T10:05:15;16.90;;;9.90;;
34072;SDS011;20346;52.702;16.886;2024-02-28T10:07:43;15.00;;;9.90;;
34072;SDS011;20346;52.702;16.886;2024-02-28T10:10:10;19.30;;;10.00;;
34072;SDS011;20346;52.702;16.886;2024-02-28T10:12:40;18.00;;;10.60;;
34072;SDS011;20346;52.702;16.886;2024-02-28T10:15:06;16.70;;;10.30;;
34072;SDS011;20346;52.702;16.886;2024-02-28T10:17:32;17.30;;;10.40;;
34072;SDS011;20346;52.702;16.886;2024-02-28T10:20:00;12.00;;;8.50;;
34072;SDS011;20346;52.702;16.886;2024-02-28T10:22:26;14.80;;;8.90;;
34072;SDS011;20346;52.702;16.886;2024-02-28T10:25:00;13.10;;;9.80;;
34072;SDS011;20346;52.702;16.886;2024-02-28T10:27:26;11.60;;;8.50;;
34072;SDS011;20346;52.702;16.886;2024-02-28T10:29:51;10.20;;;8.00;;
34072;SDS011;20346;52.702;16.886;2024-02-28T10:32:17;13.70;;;8.00;;
34072;SDS011;20346;52.702;16.886;2024-02-28T10:34:42;11.50;;;8.00;;
34072;SDS011;20346;52.702;16.886;2024-02-28T10:37:09;8.20;;;6.80;;
34072;SDS011;20346;52.702;16.886;2024-02-28T10:39:34;8.90;;;7.90;;
34072;SDS011;20346;52.702;16.886;2024-02-28T10:42:01;9.50;;;8.20;;
34072;SDS011;20346;52.702;16.886;2024-02-28T10:44:28;12.00;;;8.20;;
34072;SDS011;20346;52.702;16.886;2024-02-28T10:46:55;7.70;;;7.00;;
34072;SDS011;20346;52.702;16.886;2024-02-28T10:49:22;12.20;;;8.20;;
34072;SDS011;20346;52.702;16.886;2024-02-28T10:51:51;10.80;;;8.60;;
34072;SDS011;20346;52.702;16.886;2024-02-28T10:54:21;10.10;;;8.30;;
34072;SDS011;20346;52.702;16.886;2024-02-28T10:56:49;9.30;;;8.20;;
34072;SDS011;20346;52.702;16.886;2024-02-28T10:59:17;9.80;;;8.60;;
34072;SDS011;20346;52.702;16.886;2024-02-28T11:01:42;10.30;;;8.60;;
34072;SDS011;20346;52.702;16.886;2024-02-28T11:04:09;8.40;;;7.50;;
34072;SDS011;20346;52.702;16.886;2024-02-28T11:06:46;8.10;;;7.10;;
34072;SDS011;20346;52.702;16.886;2024-02-28T11:09:23;9.30;;;7.70;;
34072;SDS011;20346;52.702;16.886;2024-02-28T11:11:52;9.50;;;7.30;;
34072;SDS011;20346;52.702;16.886;2024-02-28T11:14:18;14.00;;;8.40;;
34072;SDS011;20346;52.702;16.886;2024-02-28T11:17:04;9.70;;;8.40;;
34072;SDS011;20346;52.702;16.886;2024-02-28T11:19:31;12.10;;;8.70;;
34072;SDS011;20346;52.702;16.886;2024-02-28T11:22:00;9.60;;;8.30;;
34072;SDS011;20346;52.702;16.886;2024-02-28T11:24:30;10.20;;;8.90;;
34072;SDS011;20346;52.702;16.886;2024-02-28T11:26:56;9.10;;;7.60;;
34072;SDS011;20346;52.702;16.886;2024-02-28T11:29:24;11.70;;;8.60;;
34072;SDS011;20346;52.702;16.886;2024-02-28T11:31:52;10.10;;;8.60;;
34072;SDS011;20346;52.702;16.886;2024-02-28T11:34:18;13.50;;;8.40;;
34072;SDS011;20346;52.702;16.886;2024-02-28T11:36:46;9.20;;;7.50;;
34072;SDS011;20346;52.702;16.886;2024-02-28T11:39:13;9.60;;;7.40;;
34072;SDS011;20346;52.702;16.886;2024-02-28T11:41:38;11.10;;;6.90;;
34072;SDS011;20346;52.702;16.886;2024-02-28T11:44:05;9.00;;;6.90;;
34072;SDS011;20346;52.702;16.886;2024-02-28T11:46:30;10.50;;;7.00;;
34072;SDS011;20346;52.702;16.886;2024-02-28T11:48:56;9.50;;;7.10;;
34072;SDS011;20346;52.702;16.886;2024-02-28T11:51:22;9.40;;;7.10;;
34072;SDS011;20346;52.702;16.886;2024-02-28T11:53:48;6.20;;;5.30;;
34072;SDS011;20346;52.702;16.886;2024-02-28T11:56:13;9.00;;;6.60;;
34072;SDS011;20346;52.702;16.886;2024-02-28T11:58:54;7.00;;;5.80;;
34072;SDS011;20346;52.702;16.886;2024-02-28T12:01:33;8.10;;;6.10;;
34072;SDS011;20346;52.702;16.886;2024-02-28T12:04:01;6.20;;;5.10;;
34072;SDS011;20346;52.702;16.886;2024-02-28T12:06:29;8.70;;;6.40;;
34072;SDS011;20346;52.702;16.886;2024-02-28T12:08:54;7.20;;;5.30;;
34072;SDS011;20346;52.702;16.886;2024-02-28T12:11:20;8.20;;;6.00;;
34072;SDS011;20346;52.702;16.886;2024-02-28T12:13:45;8.90;;;5.90;;
34072;SDS011;20346;52.702;16.886;2024-02-28T12:16:11;7.50;;;6.00;;
34072;SDS011;20346;52.702;16.886;2024-02-28T12:18:36;7.60;;;5.60;;
34072;SDS011;20346;52.702;16.886;2024-02-28T12:21:02;8.10;;;5.70;;
34072;SDS011;20346;52.702;16.886;2024-02-28T12:23:28;10.50;;;5.50;;
34072;SDS011;20346;52.702;16.886;2024-02-28T12:25:54;9.00;;;6.00;;
34072;SDS011;20346;52.702;16.886;2024-02-28T12:28:19;8.20;;;6.30;;
34072;SDS011;20346;52.702;16.886;2024-02-28T12:30:45;10.60;;;6.70;;
34072;SDS011;20346;52.702;16.886;2024-02-28T12:33:10;10.90;;;6.90;;
34072;SDS011;20346;52.702;16.886;2024-02-28T12:35:39;12.80;;;6.60;;
34072;SDS011;20346;52.702;16.886;2024-02-28T12:38:06;9.90;;;6.60;;
34072;SDS011;20346;52.702;16.886;2024-02-28T12:40:31;11.60;;;6.50;;
34072;SDS011;20346;52.702;16.886;2024-02-28T12:42:56;11.90;;;6.40;;
34072;SDS011;20346;52.702;16.886;2024-02-28T12:45:22;11.70;;;6.70;;
34072;SDS011;20346;52.702;16.886;2024-02-28T12:47:48;11.10;;;7.20;;
34072;SDS011;20346;52.702;16.886;2024-02-28T12:50:13;11.50;;;7.30;;
34072;SDS011;20346;52.702;16.886;2024-02-28T12:52:39;12.70;;;8.10;;
34072;SDS011;20346;52.702;16.886;2024-02-28T12:55:04;10.80;;;8.00;;
34072;SDS011;20346;52.702;16.886;2024-02-28T12:57:30;9.20;;;5.90;;
34072;SDS011;20346;52.702;16.886;2024-02-28T12:59:55;9.90;;;7.10;;
34072;SDS011;20346;52.702;16.886;2024-02-28T13:02:21;10.60;;;6.60;;
34072;SDS011;20346;52.702;16.886;2024-02-28T13:04:47;9.10;;;6.50;;
34072;SDS011;20346;52.702;16.886;2024-02-28T13:07:13;8.80;;;7.00;;
34072;SDS011;20346;52.702;16.886;2024-02-28T13:09:39;13.20;;;7.80;;
34072;SDS011;20346;52.702;16.886;2024-02-28T13:12:04;12.00;;;7.10;;
34072;SDS011;20346;52.702;16.886;2024-02-28T13:14:30;12.80;;;7.50;;
34072;SDS011;20346;52.702;16.886;2024-02-28T13:16:57;8.70;;;6.80;;
34072;SDS011;20346;52.702;16.886;2024-02-28T13:19:23;8.30;;;6.90;;
34072;SDS011;20346;52.702;16.886;2024-02-28T13:21:49;8.30;;;6.70;;
34072;SDS011;20346;52.702;16.886;2024-02-28T13:24:14;10.30;;;7.00;;
34072;SDS011;20346;52.702;16.886;2024-02-28T13:29:06;9.20;;;7.00;;
34072;SDS011;20346;52.702;16.886;2024-02-28T13:31:32;8.70;;;6.40;;
34072;SDS011;20346;52.702;16.886;2024-02-28T13:33:59;10.50;;;7.20;;
34072;SDS011;20346;52.702;16.886;2024-02-28T13:38:51;7.70;;;6.10;;
34072;SDS011;20346;52.702;16.886;2024-02-28T13:41:16;10.70;;;6.80;;
34072;SDS011;20346;52.702;16.886;2024-02-28T13:43:42;8.30;;;7.30;;
34072;SDS011;20346;52.702;16.886;2024-02-28T13:46:08;9.40;;;7.00;;
34072;SDS011;20346;52.702;16.886;2024-02-28T13:48:35;11.00;;;6.40;;
34072;SDS011;20346;52.702;16.886;2024-02-28T13:51:00;10.80;;;7.70;;
34072;SDS011;20346;52.702;16.886;2024-02-28T13:53:27;7.60;;;6.80;;
34072;SDS011;20346;52.702;16.886;2024-02-28T13:55:52;9.60;;;7.00;;
34072;SDS011;20346;52.702;16.886;2024-02-28T13:58:18;8.80;;;6.80;;
34072;SDS011;20346;52.702;16.886;2024-02-28T14:00:43;8.90;;;7.80;;
34072;SDS011;20346;52.702;16.886;2024-02-28T14:03:15;9.40;;;7.00;;
34072;SDS011;20346;52.702;16.886;2024-02-28T14:05:41;8.80;;;7.10;;
34072;SDS011;20346;52.702;16.886;2024-02-28T14:08:06;8.80;;;6.80;;
34072;SDS011;20346;52.702;16.886;2024-02-28T14:10:34;8.20;;;6.60;;
34072;SDS011;20346;52.702;16.886;2024-02-28T14:12:59;6.10;;;5.50;;
34072;SDS011;20346;52.702;16.886;2024-02-28T14:15:26;6.90;;;5.90;;
34072;SDS011;20346;52.702;16.886;2024-02-28T14:17:51;9.40;;;6.90;;
34072;SDS011;20346;52.702;16.886;2024-02-28T14:20:17;9.60;;;6.30;;
34072;SDS011;20346;52.702;16.886;2024-02-28T14:22:43;6.30;;;5.00;;